Welcome to our new website - Welkom op onze vernieuwde website - Bienvenue sur notre nouveau site web - Willkommen auf unserer neuen Website
Check our progress frequently. Prüfen Sie unsere Fortschritte regelmäßig. Consultez notre progression fréquemment. Komt u straks nog eens terug


Webcam zuid Meer informatie Webcam zuid


Onweer radar Meer informatie blitzortung!


Regen radar Meer informatie rain snow radar


Bezoek onze andere website:

Template documentation
and downloads

And another site


U vindt ons ook hier:

Het Weer Aktueel

UK Metoffice

European Weather Network

WeatherCloud

Weather Underground

AWEKAS

Citizen Weather Observer Program (CWOP)

HAMweather, WeatherForYou, PWS Weather

Wetterpage 24

Roosendaal op internet

VWKWEB

RadioZuidWestFM



Het weer levert geen direct gevaar op.    Er zijn geen waarschuwingen afgegeven.

METAR rapporten vliegvelden

   
EHWO - Viegbasis Woensdrecht ,Nederland
Afstand tot: ZW 23 km
Gewijzigd: 24-10-2018 05:55
Bewolking  
Bewolking  
   Wind: WNW 20.4 km/h
Wind: WNW 20.4 km/h
Temperatuur: 15°C
Dauwpunt: 12°C
Vochtigheid: 82%
Barometer: 1024 hPa
Bewolking: Bewolking
Zicht: meer dan 10 km
Bewolking: Gedeeltelijk bewolkt 1400 ft,
Bewolking 1600 ft
EHWO 240355Z AUTO 30011KT 240V340 9999 SCT014 OVC016 15/12 Q1024 GRN
EHGR - Vliegbasis Gilse-Rijen,Nederland
Afstand tot: O 51 km
Gewijzigd: 24-10-2018 05:55
Bewolking  
Bewolking  
   Wind: WNW 24.1 km/h
Wind: WNW 24.1 km/h
Temperatuur: 15°C
Dauwpunt: 12°C
Vochtigheid: 82%
Barometer: 1023 hPa
Bewolking: Bewolking
Zicht: meer dan 10 km
Bewolking: Grotendeels bewolkt 1300 ft,
Bewolking 1500 ft
EHGR 240355Z AUTO 29013KT 260V320 9999 BKN013 OVC015 15/12 Q1023 GRN
EHRD - Vliegbasis Rotterdam, Nederland
Afstand tot: N 65 km
Gewijzigd: 24-10-2018 05:55
Bewolking  
Bewolking  
   Wind: WNW 24.1 km/h
Wind: WNW 24.1 km/h
Temperatuur: 15°C
Dauwpunt: 13°C
Vochtigheid: 88%
Barometer: 1023 hPa
Bewolking: Bewolking
Zicht: meer dan 10 km
Bewolking: Gedeeltelijk bewolkt 1200 ft,
Grotendeels bewolkt 1400 ft,
Bewolking 1700 ft
EHRD 240355Z AUTO 30013KT 250V340 9999 SCT012 BKN014 OVC017 15/13 Q1023 NOSIG
EHAM - Schiphol airport, Nederland
Afstand tot: N 118 km
Gewijzigd: 24-10-2018 05:55
Lichte (mot)regen, Bewolking  
Lichte (mot)regen, Bewolking  
   Wind: WNW 31.5 km/h
Wind: WNW 31.5 km/h
Temperatuur: 15°C
Dauwpunt: 13°C
Vochtigheid: 88%
Barometer: 1022 hPa
Bewolking: Bewolking
Zicht: meer dan 10 km
Bewolking: Licht bewolkt 800 ft,
Bewolking 1600 ft
EHAM 240355Z 30017KT 9999 -DZ FEW008 OVC016 15/13 Q1022 TEMPO 6000 -DZ
EBAW - Antwerp/Deurne, Belgium
Afstand tot: Z 54 km
Gewijzigd: 24-10-2018 05:50
Bewolking  
Bewolking  
   Wind: NW 22.2 km/h
Wind: NW 22.2 km/h
Temperatuur: 15°C
Dauwpunt: 12°C
Vochtigheid: 82%
Barometer: 1024 hPa
Bewolking: Bewolking
Zicht: meer dan 10 km
Bewolking: Grotendeels bewolkt 1300 ft,
Bewolking 1600 ft
EBAW 240350Z AUTO 31012KT 270V330 9999 // BKN013/// OVC016/// 15/12 Q1024
EBBR - Brussel Airport, Belgium
Afstand tot: Z 94 km
Gewijzigd: 24-10-2018 05:50
Grotendeels bewolkt  
Grotendeels bewolkt  
   Wind: WNW 20.4 km/h
Wind: WNW 20.4 km/h
Temperatuur: 14°C
Dauwpunt: 11°C
Vochtigheid: 82%
Barometer: 1025 hPa
Bewolking: Grotendeels bewolkt
Zicht: meer dan 10 km
Bewolking: Grotendeels bewolkt 1100 ft
EBBR 240350Z 29011KT 9999 BKN011 14/11 Q1025 NOSIG

Script ontwikkeld door  Saratoga-weather.org Aangepast voor de template door  Weerstation Leuven

Apparatuur in gebruik:

Weerstation
Davis VP2

Weerprogramma
Meteobridge

Weercomputer
Shuttle

Webleverancier
WeservIT

Davis VP2

Meteobridge

Shuttle

WeservIT